sensor_id;sensor_type;location;lat;lon;timestamp;pressure;altitude;pressure_sealevel;temperature;humidity
76808;BME280;65758;45.458;11.062;2024-01-07T00:01:03;99235.11;;;10.54;80.79
76808;BME280;65758;45.458;11.062;2024-01-07T00:03:30;99242.50;;;10.55;80.54
76808;BME280;65758;45.458;11.062;2024-01-07T00:05:57;99239.83;;;10.53;80.69
76808;BME280;65758;45.458;11.062;2024-01-07T00:08:24;99240.46;;;10.51;80.49
76808;BME280;65758;45.458;11.062;2024-01-07T00:10:51;99241.17;;;10.45;80.55
76808;BME280;65758;45.458;11.062;2024-01-07T00:13:20;99240.88;;;10.40;80.32
76808;BME280;65758;45.458;11.062;2024-01-07T00:15:47;99238.34;;;10.39;80.55
76808;BME280;65758;45.458;11.062;2024-01-07T00:18:13;99239.88;;;10.39;80.55
76808;BME280;65758;45.458;11.062;2024-01-07T00:20:41;99241.73;;;10.39;80.42
76808;BME280;65758;45.458;11.062;2024-01-07T00:23:11;99243.73;;;10.35;80.56
76808;BME280;65758;45.458;11.062;2024-01-07T00:25:38;99240.80;;;10.32;80.49
76808;BME280;65758;45.458;11.062;2024-01-07T00:28:04;99246.05;;;10.25;80.14
76808;BME280;65758;45.458;11.062;2024-01-07T00:30:31;99243.31;;;10.16;80.48
76808;BME280;65758;45.458;11.062;2024-01-07T00:32:59;99246.09;;;10.12;80.48
76808;BME280;65758;45.458;11.062;2024-01-07T00:35:26;99242.54;;;10.08;80.74
76808;BME280;65758;45.458;11.062;2024-01-07T00:37:53;99241.83;;;10.08;80.99
76808;BME280;65758;45.458;11.062;2024-01-07T00:40:19;99246.15;;;10.08;80.75
76808;BME280;65758;45.458;11.062;2024-01-07T00:42:46;99246.98;;;10.02;80.82
76808;BME280;65758;45.458;11.062;2024-01-07T00:45:13;99239.17;;;9.96;80.92
76808;BME280;65758;45.458;11.062;2024-01-07T00:47:40;99251.14;;;9.98;81.26
76808;BME280;65758;45.458;11.062;2024-01-07T00:50:07;99248.95;;;9.97;81.02
76808;BME280;65758;45.458;11.062;2024-01-07T00:52:34;99256.05;;;9.98;81.33
76808;BME280;65758;45.458;11.062;2024-01-07T00:55:05;99252.91;;;9.99;81.00
76808;BME280;65758;45.458;11.062;2024-01-07T00:57:33;99256.73;;;9.98;80.91
76808;BME280;65758;45.458;11.062;2024-01-07T01:00:00;99264.81;;;9.92;80.97
76808;BME280;65758;45.458;11.062;2024-01-07T01:02:27;99263.86;;;9.91;80.99
76808;BME280;65758;45.458;11.062;2024-01-07T01:04:54;99270.27;;;9.92;81.15
76808;BME280;65758;45.458;11.062;2024-01-07T01:07:21;99270.52;;;9.95;81.52
76808;BME280;65758;45.458;11.062;2024-01-07T01:09:48;99271.27;;;9.99;81.26
76808;BME280;65758;45.458;11.062;2024-01-07T01:12:15;99279.68;;;10.03;81.03
76808;BME280;65758;45.458;11.062;2024-01-07T01:14:42;99275.91;;;10.05;81.37
76808;BME280;65758;45.458;11.062;2024-01-07T01:17:09;99279.98;;;10.06;81.12
76808;BME280;65758;45.458;11.062;2024-01-07T01:19:35;99284.73;;;10.07;81.11
76808;BME280;65758;45.458;11.062;2024-01-07T01:22:03;99285.70;;;10.05;80.99
76808;BME280;65758;45.458;11.062;2024-01-07T01:24:29;99284.77;;;10.05;81.14
76808;BME280;65758;45.458;11.062;2024-01-07T01:26:57;99286.15;;;10.06;81.11
76808;BME280;65758;45.458;11.062;2024-01-07T01:29:23;99286.67;;;10.04;81.25
76808;BME280;65758;45.458;11.062;2024-01-07T01:31:50;99289.64;;;10.06;81.05
76808;BME280;65758;45.458;11.062;2024-01-07T01:34:17;99291.84;;;10.06;81.36
76808;BME280;65758;45.458;11.062;2024-01-07T01:36:44;99290.91;;;10.08;81.17
76808;BME280;65758;45.458;11.062;2024-01-07T01:39:12;99284.81;;;10.10;80.95
76808;BME280;65758;45.458;11.062;2024-01-07T01:41:39;99288.05;;;10.11;81.03
76808;BME280;65758;45.458;11.062;2024-01-07T01:44:06;99286.13;;;10.14;81.34
76808;BME280;65758;45.458;11.062;2024-01-07T01:46:33;99286.44;;;10.16;81.16
76808;BME280;65758;45.458;11.062;2024-01-07T01:49:00;99287.55;;;10.18;80.78
76808;BME280;65758;45.458;11.062;2024-01-07T01:51:28;99287.65;;;10.18;80.89
76808;BME280;65758;45.458;11.062;2024-01-07T01:53:55;99286.52;;;10.19;81.13
76808;BME280;65758;45.458;11.062;2024-01-07T01:56:26;99288.09;;;10.23;80.90
76808;BME280;65758;45.458;11.062;2024-01-07T01:58:55;99291.28;;;10.26;80.90
76808;BME280;65758;45.458;11.062;2024-01-07T02:01:25;99290.02;;;10.30;80.82
76808;BME280;65758;45.458;11.062;2024-01-07T02:03:53;99286.53;;;10.33;80.61
76808;BME280;65758;45.458;11.062;2024-01-07T02:06:21;99286.64;;;10.33;80.67
76808;BME280;65758;45.458;11.062;2024-01-07T02:08:49;99287.07;;;10.33;80.29
76808;BME280;65758;45.458;11.062;2024-01-07T02:11:18;99281.16;;;10.32;80.45
76808;BME280;65758;45.458;11.062;2024-01-07T02:13:45;99281.69;;;10.30;80.29
76808;BME280;65758;45.458;11.062;2024-01-07T02:16:12;99282.17;;;10.28;80.42
76808;BME280;65758;45.458;11.062;2024-01-07T02:18:45;99277.46;;;10.28;80.59
76808;BME280;65758;45.458;11.062;2024-01-07T02:21:13;99281.26;;;10.29;80.39
76808;BME280;65758;45.458;11.062;2024-01-07T02:23:40;99275.79;;;10.30;80.50
76808;BME280;65758;45.458;11.062;2024-01-07T02:26:07;99266.36;;;10.28;80.84
76808;BME280;65758;45.458;11.062;2024-01-07T02:28:35;99272.79;;;10.27;80.53
76808;BME280;65758;45.458;11.062;2024-01-07T02:31:02;99278.87;;;10.15;79.97
76808;BME280;65758;45.458;11.062;2024-01-07T02:33:30;99271.84;;;10.01;80.06
76808;BME280;65758;45.458;11.062;2024-01-07T02:35:57;99269.65;;;9.95;80.68
76808;BME280;65758;45.458;11.062;2024-01-07T02:38:24;99273.63;;;9.94;80.78
76808;BME280;65758;45.458;11.062;2024-01-07T02:40:51;99275.80;;;9.93;81.00
76808;BME280;65758;45.458;11.062;2024-01-07T02:43:18;99269.65;;;9.95;81.01
76808;BME280;65758;45.458;11.062;2024-01-07T02:45:45;99267.86;;;9.96;81.06
76808;BME280;65758;45.458;11.062;2024-01-07T02:48:11;99266.09;;;9.94;81.06
76808;BME280;65758;45.458;11.062;2024-01-07T02:50:39;99262.34;;;9.92;80.67
76808;BME280;65758;45.458;11.062;2024-01-07T02:53:05;99264.65;;;9.91;80.95
76808;BME280;65758;45.458;11.062;2024-01-07T02:55:34;99259.48;;;9.94;80.95
76808;BME280;65758;45.458;11.062;2024-01-07T02:58:01;99260.70;;;9.97;80.89
76808;BME280;65758;45.458;11.062;2024-01-07T03:00:28;99263.23;;;9.98;80.79
76808;BME280;65758;45.458;11.062;2024-01-07T03:02:55;99259.52;;;9.94;80.90
76808;BME280;65758;45.458;11.062;2024-01-07T03:05:22;99256.49;;;9.92;80.95
76808;BME280;65758;45.458;11.062;2024-01-07T03:07:49;99251.86;;;9.91;81.08
76808;BME280;65758;45.458;11.062;2024-01-07T03:10:16;99253.50;;;9.91;81.19
76808;BME280;65758;45.458;11.062;2024-01-07T03:12:43;99244.92;;;9.94;81.07
76808;BME280;65758;45.458;11.062;2024-01-07T03:15:10;99247.02;;;9.94;81.00
76808;BME280;65758;45.458;11.062;2024-01-07T03:17:37;99246.21;;;9.96;81.02
76808;BME280;65758;45.458;11.062;2024-01-07T03:20:04;99245.72;;;9.95;80.89
76808;BME280;65758;45.458;11.062;2024-01-07T03:22:31;99238.58;;;9.92;80.94
76808;BME280;65758;45.458;11.062;2024-01-07T03:24:58;99241.39;;;9.90;80.90
76808;BME280;65758;45.458;11.062;2024-01-07T03:27:25;99240.61;;;9.87;80.71
76808;BME280;65758;45.458;11.062;2024-01-07T03:29:52;99243.33;;;9.85;80.54
76808;BME280;65758;45.458;11.062;2024-01-07T03:32:19;99245.52;;;9.86;80.89
76808;BME280;65758;45.458;11.062;2024-01-07T03:34:45;99251.89;;;9.88;81.18
76808;BME280;65758;45.458;11.062;2024-01-07T03:37:12;99247.77;;;9.89;80.91
76808;BME280;65758;45.458;11.062;2024-01-07T03:39:39;99256.15;;;9.90;80.60
76808;BME280;65758;45.458;11.062;2024-01-07T03:42:06;99256.70;;;9.90;80.89
76808;BME280;65758;45.458;11.062;2024-01-07T03:44:38;99259.38;;;9.90;81.07
76808;BME280;65758;45.458;11.062;2024-01-07T03:47:06;99260.18;;;9.90;80.94
76808;BME280;65758;45.458;11.062;2024-01-07T03:49:33;99264.45;;;9.89;80.56
76808;BME280;65758;45.458;11.062;2024-01-07T03:52:00;99260.13;;;9.89;80.69
76808;BME280;65758;45.458;11.062;2024-01-07T03:54:27;99261.33;;;9.88;80.71
76808;BME280;65758;45.458;11.062;2024-01-07T03:56:54;99263.15;;;9.84;80.76
76808;BME280;65758;45.458;11.062;2024-01-07T03:59:21;99257.11;;;9.82;80.72
76808;BME280;65758;45.458;11.062;2024-01-07T04:01:50;99262.08;;;9.82;80.46
76808;BME280;65758;45.458;11.062;2024-01-07T04:04:17;99261.80;;;9.81;80.59
76808;BME280;65758;45.458;11.062;2024-01-07T04:06:44;99260.11;;;9.82;80.60
76808;BME280;65758;45.458;11.062;2024-01-07T04:09:11;99261.91;;;9.85;80.95
76808;BME280;65758;45.458;11.062;2024-01-07T04:11:41;99264.77;;;9.87;80.67
76808;BME280;65758;45.458;11.062;2024-01-07T04:14:09;99270.57;;;9.89;80.55
76808;BME280;65758;45.458;11.062;2024-01-07T04:16:36;99271.94;;;9.88;80.28
76808;BME280;65758;45.458;11.062;2024-01-07T04:19:03;99267.30;;;9.85;80.37
76808;BME280;65758;45.458;11.062;2024-01-07T04:21:30;99270.01;;;9.81;80.39
76808;BME280;65758;45.458;11.062;2024-01-07T04:23:57;99266.96;;;9.79;80.49
76808;BME280;65758;45.458;11.062;2024-01-07T04:26:24;99271.89;;;9.74;80.36
76808;BME280;65758;45.458;11.062;2024-01-07T04:28:50;99273.95;;;9.72;80.50
76808;BME280;65758;45.458;11.062;2024-01-07T04:31:17;99277.06;;;9.72;80.41
76808;BME280;65758;45.458;11.062;2024-01-07T04:33:45;99278.11;;;9.73;80.51
76808;BME280;65758;45.458;11.062;2024-01-07T04:36:12;99274.70;;;9.72;80.47
76808;BME280;65758;45.458;11.062;2024-01-07T04:38:39;99280.53;;;9.70;80.25
76808;BME280;65758;45.458;11.062;2024-01-07T04:41:05;99282.03;;;9.67;80.11
76808;BME280;65758;45.458;11.062;2024-01-07T04:43:34;99284.91;;;9.66;80.28
76808;BME280;65758;45.458;11.062;2024-01-07T04:46:02;99283.92;;;9.70;80.35
76808;BME280;65758;45.458;11.062;2024-01-07T04:48:29;99281.66;;;9.74;80.64
76808;BME280;65758;45.458;11.062;2024-01-07T04:50:56;99286.84;;;9.76;80.65
76808;BME280;65758;45.458;11.062;2024-01-07T04:53:23;99284.19;;;9.74;80.22
76808;BME280;65758;45.458;11.062;2024-01-07T04:55:50;99292.48;;;9.72;80.47
76808;BME280;65758;45.458;11.062;2024-01-07T04:58:16;99295.41;;;9.71;80.18
76808;BME280;65758;45.458;11.062;2024-01-07T05:00:43;99294.02;;;9.68;80.08
76808;BME280;65758;45.458;11.062;2024-01-07T05:03:10;99292.66;;;9.70;80.09
76808;BME280;65758;45.458;11.062;2024-01-07T05:05:37;99296.33;;;9.75;80.10
76808;BME280;65758;45.458;11.062;2024-01-07T05:08:05;99294.13;;;9.81;80.22
76808;BME280;65758;45.458;11.062;2024-01-07T05:10:32;99292.20;;;9.82;79.97
76808;BME280;65758;45.458;11.062;2024-01-07T05:12:59;99297.08;;;9.84;80.04
76808;BME280;65758;45.458;11.062;2024-01-07T05:15:31;99293.75;;;9.84;80.04
76808;BME280;65758;45.458;11.062;2024-01-07T05:17:59;99300.85;;;9.84;80.12
76808;BME280;65758;45.458;11.062;2024-01-07T05:20:26;99301.58;;;9.86;80.12
76808;BME280;65758;45.458;11.062;2024-01-07T05:22:53;99301.02;;;9.90;80.31
76808;BME280;65758;45.458;11.062;2024-01-07T05:25:20;99304.66;;;9.93;80.30
76808;BME280;65758;45.458;11.062;2024-01-07T05:27:47;99310.34;;;9.93;80.25
76808;BME280;65758;45.458;11.062;2024-01-07T05:30:14;99311.11;;;9.94;80.10
76808;BME280;65758;45.458;11.062;2024-01-07T05:32:41;99316.91;;;9.94;80.16
76808;BME280;65758;45.458;11.062;2024-01-07T05:35:08;99319.66;;;9.93;80.15
76808;BME280;65758;45.458;11.062;2024-01-07T05:37:35;99318.20;;;9.93;79.96
76808;BME280;65758;45.458;11.062;2024-01-07T05:40:02;99320.55;;;9.93;80.05
76808;BME280;65758;45.458;11.062;2024-01-07T05:42:29;99325.42;;;9.93;80.02
76808;BME280;65758;45.458;11.062;2024-01-07T05:44:56;99328.59;;;9.92;80.37
76808;BME280;65758;45.458;11.062;2024-01-07T05:47:23;99327.28;;;9.92;80.25
76808;BME280;65758;45.458;11.062;2024-01-07T05:49:49;99328.11;;;9.90;79.83
76808;BME280;65758;45.458;11.062;2024-01-07T05:52:19;99332.67;;;9.86;80.25
76808;BME280;65758;45.458;11.062;2024-01-07T05:54:46;99331.23;;;9.86;80.18
76808;BME280;65758;45.458;11.062;2024-01-07T05:57:13;99333.13;;;9.89;80.23
76808;BME280;65758;45.458;11.062;2024-01-07T05:59:40;99334.88;;;9.89;80.23
76808;BME280;65758;45.458;11.062;2024-01-07T06:02:07;99339.81;;;9.90;80.15
76808;BME280;65758;45.458;11.062;2024-01-07T06:04:34;99339.63;;;9.92;80.48
76808;BME280;65758;45.458;11.062;2024-01-07T06:07:02;99339.95;;;9.94;80.57
76808;BME280;65758;45.458;11.062;2024-01-07T06:09:29;99346.61;;;9.95;80.10
76808;BME280;65758;45.458;11.062;2024-01-07T06:11:56;99349.73;;;9.97;80.31
76808;BME280;65758;45.458;11.062;2024-01-07T06:14:23;99346.84;;;9.98;80.17
76808;BME280;65758;45.458;11.062;2024-01-07T06:16:51;99344.67;;;9.99;80.15
76808;BME280;65758;45.458;11.062;2024-01-07T06:19:19;99349.36;;;9.98;80.18
76808;BME280;65758;45.458;11.062;2024-01-07T06:21:46;99351.30;;;9.96;79.95
76808;BME280;65758;45.458;11.062;2024-01-07T06:24:13;99360.45;;;9.92;80.47
76808;BME280;65758;45.458;11.062;2024-01-07T06:26:41;99358.71;;;9.90;80.25
76808;BME280;65758;45.458;11.062;2024-01-07T06:29:08;99359.09;;;9.89;80.48
76808;BME280;65758;45.458;11.062;2024-01-07T06:31:42;99365.52;;;9.91;80.27
76808;BME280;65758;45.458;11.062;2024-01-07T06:34:11;99368.50;;;9.90;80.63
76808;BME280;65758;45.458;11.062;2024-01-07T06:36:41;99373.03;;;9.85;80.47
76808;BME280;65758;45.458;11.062;2024-01-07T06:39:08;99372.82;;;9.81;80.69
76808;BME280;65758;45.458;11.062;2024-01-07T06:41:35;99376.01;;;9.78;80.60
76808;BME280;65758;45.458;11.062;2024-01-07T06:44:02;99377.98;;;9.78;80.25
76808;BME280;65758;45.458;11.062;2024-01-07T06:46:30;99386.92;;;9.80;80.08
76808;BME280;65758;45.458;11.062;2024-01-07T06:48:57;99386.27;;;9.76;80.05
76808;BME280;65758;45.458;11.062;2024-01-07T06:51:23;99390.58;;;9.72;80.05
76808;BME280;65758;45.458;11.062;2024-01-07T06:53:50;99395.11;;;9.64;80.34
76808;BME280;65758;45.458;11.062;2024-01-07T06:56:17;99398.05;;;9.54;80.12
76808;BME280;65758;45.458;11.062;2024-01-07T06:58:44;99401.77;;;9.47;80.20
76808;BME280;65758;45.458;11.062;2024-01-07T07:01:11;99404.27;;;9.45;80.46
76808;BME280;65758;45.458;11.062;2024-01-07T07:03:40;99408.21;;;9.43;80.22
76808;BME280;65758;45.458;11.062;2024-01-07T07:06:07;99414.80;;;9.45;80.60
76808;BME280;65758;45.458;11.062;2024-01-07T07:08:34;99411.34;;;9.50;80.76
76808;BME280;65758;45.458;11.062;2024-01-07T07:11:01;99410.43;;;9.56;80.75
76808;BME280;65758;45.458;11.062;2024-01-07T07:13:28;99420.73;;;9.59;80.71
76808;BME280;65758;45.458;11.062;2024-01-07T07:15:55;99423.20;;;9.60;80.32
76808;BME280;65758;45.458;11.062;2024-01-07T07:18:22;99422.94;;;9.53;80.31
76808;BME280;65758;45.458;11.062;2024-01-07T07:20:49;99420.17;;;9.50;80.21
76808;BME280;65758;45.458;11.062;2024-01-07T07:23:17;99432.67;;;9.47;80.09
76808;BME280;65758;45.458;11.062;2024-01-07T07:25:44;99437.95;;;9.45;80.21
76808;BME280;65758;45.458;11.062;2024-01-07T07:28:11;99442.66;;;9.46;80.32
76808;BME280;65758;45.458;11.062;2024-01-07T07:30:38;99444.75;;;9.47;80.12
76808;BME280;65758;45.458;11.062;2024-01-07T07:33:05;99445.27;;;9.48;80.22
76808;BME280;65758;45.458;11.062;2024-01-07T07:35:32;99451.48;;;9.51;80.12
76808;BME280;65758;45.458;11.062;2024-01-07T07:37:59;99452.19;;;9.55;80.66
76808;BME280;65758;45.458;11.062;2024-01-07T07:40:26;99455.52;;;9.63;80.61
76808;BME280;65758;45.458;11.062;2024-01-07T07:42:52;99458.61;;;9.64;80.13
76808;BME280;65758;45.458;11.062;2024-01-07T07:45:19;99460.56;;;9.60;79.95
76808;BME280;65758;45.458;11.062;2024-01-07T07:47:46;99463.65;;;9.59;80.12
76808;BME280;65758;45.458;11.062;2024-01-07T07:50:13;99465.83;;;9.62;80.07
76808;BME280;65758;45.458;11.062;2024-01-07T07:52:43;99466.48;;;9.65;79.95
76808;BME280;65758;45.458;11.062;2024-01-07T07:55:12;99466.47;;;9.68;80.17
76808;BME280;65758;45.458;11.062;2024-01-07T07:57:39;99466.70;;;9.70;79.85
76808;BME280;65758;45.458;11.062;2024-01-07T08:00:07;99467.30;;;9.69;79.80
76808;BME280;65758;45.458;11.062;2024-01-07T08:02:34;99471.84;;;9.69;80.05
76808;BME280;65758;45.458;11.062;2024-01-07T08:05:01;99469.89;;;9.72;80.17
76808;BME280;65758;45.458;11.062;2024-01-07T08:07:28;99470.67;;;9.76;80.02
76808;BME280;65758;45.458;11.062;2024-01-07T08:09:55;99474.09;;;9.79;79.90
76808;BME280;65758;45.458;11.062;2024-01-07T08:12:24;99476.74;;;9.81;79.83
76808;BME280;65758;45.458;11.062;2024-01-07T08:14:51;99475.77;;;9.81;80.03
76808;BME280;65758;45.458;11.062;2024-01-07T08:17:18;99473.78;;;9.84;79.77
76808;BME280;65758;45.458;11.062;2024-01-07T08:19:45;99477.98;;;9.88;80.01
76808;BME280;65758;45.458;11.062;2024-01-07T08:22:12;99484.41;;;9.90;79.81
76808;BME280;65758;45.458;11.062;2024-01-07T08:24:39;99486.31;;;9.93;80.13
76808;BME280;65758;45.458;11.062;2024-01-07T08:27:06;99489.08;;;9.96;79.73
76808;BME280;65758;45.458;11.062;2024-01-07T08:29:33;99489.47;;;9.97;79.80
76808;BME280;65758;45.458;11.062;2024-01-07T08:32:00;99492.95;;;9.99;79.74
76808;BME280;65758;45.458;11.062;2024-01-07T08:34:27;99488.95;;;9.99;79.26
76808;BME280;65758;45.458;11.062;2024-01-07T08:36:55;99493.95;;;9.97;79.51
76808;BME280;65758;45.458;11.062;2024-01-07T08:39:23;99499.36;;;9.89;79.49
76808;BME280;65758;45.458;11.062;2024-01-07T08:41:52;99491.85;;;9.83;79.50
76808;BME280;65758;45.458;11.062;2024-01-07T08:44:20;99491.06;;;9.86;79.81
76808;BME280;65758;45.458;11.062;2024-01-07T08:46:47;99506.59;;;9.86;79.99
76808;BME280;65758;45.458;11.062;2024-01-07T08:49:14;99500.59;;;9.78;79.87
76808;BME280;65758;45.458;11.062;2024-01-07T08:51:41;99500.69;;;9.78;80.09
76808;BME280;65758;45.458;11.062;2024-01-07T08:54:09;99510.94;;;9.80;79.99
76808;BME280;65758;45.458;11.062;2024-01-07T08:56:36;99513.73;;;9.77;80.37
76808;BME280;65758;45.458;11.062;2024-01-07T08:59:03;99515.42;;;9.80;80.14
76808;BME280;65758;45.458;11.062;2024-01-07T09:01:31;99519.68;;;9.84;80.21
76808;BME280;65758;45.458;11.062;2024-01-07T09:03:58;99517.77;;;9.92;80.47
76808;BME280;65758;45.458;11.062;2024-01-07T09:06:25;99521.35;;;9.99;80.36
76808;BME280;65758;45.458;11.062;2024-01-07T09:08:53;99521.09;;;10.03;80.20
76808;BME280;65758;45.458;11.062;2024-01-07T09:11:19;99517.86;;;10.07;80.28
76808;BME280;65758;45.458;11.062;2024-01-07T09:13:46;99519.89;;;10.12;80.21
76808;BME280;65758;45.458;11.062;2024-01-07T09:16:16;99524.56;;;10.16;80.30
76808;BME280;65758;45.458;11.062;2024-01-07T09:18:43;99523.14;;;10.19;79.73
76808;BME280;65758;45.458;11.062;2024-01-07T09:21:13;99522.96;;;10.23;79.82
76808;BME280;65758;45.458;11.062;2024-01-07T09:23:40;99526.70;;;10.29;79.73
76808;BME280;65758;45.458;11.062;2024-01-07T09:26:08;99529.61;;;10.33;79.93
76808;BME280;65758;45.458;11.062;2024-01-07T09:28:35;99525.69;;;10.35;80.09
76808;BME280;65758;45.458;11.062;2024-01-07T09:31:02;99537.84;;;10.32;79.41
76808;BME280;65758;45.458;11.062;2024-01-07T09:33:29;99535.02;;;10.24;79.41
76808;BME280;65758;45.458;11.062;2024-01-07T09:35:56;99535.04;;;10.22;79.09
76808;BME280;65758;45.458;11.062;2024-01-07T09:38:36;99537.78;;;10.23;79.42
76808;BME280;65758;45.458;11.062;2024-01-07T09:41:03;99541.23;;;10.24;79.39
76808;BME280;65758;45.458;11.062;2024-01-07T09:43:30;99538.02;;;10.24;79.01
76808;BME280;65758;45.458;11.062;2024-01-07T09:46:02;99541.92;;;10.27;79.46
76808;BME280;65758;45.458;11.062;2024-01-07T09:48:29;99542.48;;;10.26;78.84
76808;BME280;65758;45.458;11.062;2024-01-07T09:50:57;99542.21;;;10.24;79.18
76808;BME280;65758;45.458;11.062;2024-01-07T09:53:25;99544.42;;;10.25;79.33
76808;BME280;65758;45.458;11.062;2024-01-07T09:58:32;99541.92;;;10.31;79.32
76808;BME280;65758;45.458;11.062;2024-01-07T10:00:59;99538.64;;;10.35;79.12
76808;BME280;65758;45.458;11.062;2024-01-07T10:03:26;99538.84;;;10.38;79.20
76808;BME280;65758;45.458;11.062;2024-01-07T10:05:53;99539.84;;;10.39;78.88
76808;BME280;65758;45.458;11.062;2024-01-07T10:08:20;99540.23;;;10.40;78.67
76808;BME280;65758;45.458;11.062;2024-01-07T10:10:50;99537.27;;;10.39;78.24
76808;BME280;65758;45.458;11.062;2024-01-07T10:13:17;99542.30;;;10.35;78.57
76808;BME280;65758;45.458;11.062;2024-01-07T10:15:43;99541.39;;;10.31;78.84
76808;BME280;65758;45.458;11.062;2024-01-07T10:18:10;99538.45;;;10.32;78.97
76808;BME280;65758;45.458;11.062;2024-01-07T10:20:37;99539.98;;;10.37;78.88
76808;BME280;65758;45.458;11.062;2024-01-07T10:23:08;99536.36;;;10.41;79.30
76808;BME280;65758;45.458;11.062;2024-01-07T10:25:36;99529.27;;;10.46;78.92
76808;BME280;65758;45.458;11.062;2024-01-07T10:28:04;99532.04;;;10.49;78.78
76808;BME280;65758;45.458;11.062;2024-01-07T10:30:32;99528.45;;;10.52;78.86
76808;BME280;65758;45.458;11.062;2024-01-07T10:33:00;99526.22;;;10.53;78.95
76808;BME280;65758;45.458;11.062;2024-01-07T10:35:33;99527.21;;;10.54;78.62
76808;BME280;65758;45.458;11.062;2024-01-07T10:38:01;99527.11;;;10.53;78.60
76808;BME280;65758;45.458;11.062;2024-01-07T10:40:29;99526.73;;;10.53;78.67
76808;BME280;65758;45.458;11.062;2024-01-07T10:42:56;99527.38;;;10.54;78.59
76808;BME280;65758;45.458;11.062;2024-01-07T10:45:24;99525.38;;;10.55;78.62
76808;BME280;65758;45.458;11.062;2024-01-07T10:47:54;99522.51;;;10.57;78.67
76808;BME280;65758;45.458;11.062;2024-01-07T10:50:22;99526.73;;;10.59;78.92
76808;BME280;65758;45.458;11.062;2024-01-07T10:52:49;99523.80;;;10.61;78.74
76808;BME280;65758;45.458;11.062;2024-01-07T10:55:22;99512.79;;;10.60;78.42
76808;BME280;65758;45.458;11.062;2024-01-07T10:57:56;99504.34;;;10.53;78.35
76808;BME280;65758;45.458;11.062;2024-01-07T11:00:24;99514.69;;;10.49;78.24
76808;BME280;65758;45.458;11.062;2024-01-07T11:05:34;99501.29;;;10.38;78.76
76808;BME280;65758;45.458;11.062;2024-01-07T11:08:15;99509.46;;;10.33;78.78
76808;BME280;65758;45.458;11.062;2024-01-07T11:10:48;99495.83;;;10.26;79.16
76808;BME280;65758;45.458;11.062;2024-01-07T11:13:36;99496.55;;;10.24;78.86
76808;BME280;65758;45.458;11.062;2024-01-07T11:16:06;99493.67;;;10.20;78.87
76808;BME280;65758;45.458;11.062;2024-01-07T11:18:46;99493.17;;;10.20;78.90
76808;BME280;65758;45.458;11.062;2024-01-07T11:21:23;99489.27;;;10.17;78.87
76808;BME280;65758;45.458;11.062;2024-01-07T11:23:51;99490.17;;;10.19;79.22
76808;BME280;65758;45.458;11.062;2024-01-07T11:26:20;99486.70;;;10.22;79.44
76808;BME280;65758;45.458;11.062;2024-01-07T11:28:55;99477.36;;;10.24;79.16
76808;BME280;65758;45.458;11.062;2024-01-07T11:34:08;99474.46;;;10.26;79.18
76808;BME280;65758;45.458;11.062;2024-01-07T11:36:36;99471.59;;;10.25;79.14
76808;BME280;65758;45.458;11.062;2024-01-07T11:39:04;99471.47;;;10.25;79.36
76808;BME280;65758;45.458;11.062;2024-01-07T11:41:33;99471.58;;;10.29;79.22
76808;BME280;65758;45.458;11.062;2024-01-07T11:44:01;99469.35;;;10.35;79.35
76808;BME280;65758;45.458;11.062;2024-01-07T11:46:32;99474.15;;;10.39;79.82
76808;BME280;65758;45.458;11.062;2024-01-07T11:49:00;99472.36;;;10.45;79.48
76808;BME280;65758;45.458;11.062;2024-01-07T11:51:30;99471.27;;;10.50;79.56
76808;BME280;65758;45.458;11.062;2024-01-07T11:53:59;99469.52;;;10.54;79.36
76808;BME280;65758;45.458;11.062;2024-01-07T11:56:28;99471.83;;;10.57;79.08
76808;BME280;65758;45.458;11.062;2024-01-07T11:58:55;99465.94;;;10.63;79.20
76808;BME280;65758;45.458;11.062;2024-01-07T12:01:25;99463.02;;;10.72;79.13
76808;BME280;65758;45.458;11.062;2024-01-07T12:03:55;99464.41;;;10.79;78.80
76808;BME280;65758;45.458;11.062;2024-01-07T12:06:22;99461.70;;;10.83;78.82
76808;BME280;65758;45.458;11.062;2024-01-07T12:08:49;99464.48;;;10.88;78.47
76808;BME280;65758;45.458;11.062;2024-01-07T12:11:18;99461.94;;;10.91;78.18
76808;BME280;65758;45.458;11.062;2024-01-07T12:13:46;99465.82;;;10.93;78.15
76808;BME280;65758;45.458;11.062;2024-01-07T12:16:13;99457.09;;;10.94;78.03
76808;BME280;65758;45.458;11.062;2024-01-07T12:18:40;99458.52;;;10.96;77.97
76808;BME280;65758;45.458;11.062;2024-01-07T12:21:07;99456.19;;;10.98;77.88
76808;BME280;65758;45.458;11.062;2024-01-07T12:23:35;99456.25;;;11.01;77.79
76808;BME280;65758;45.458;11.062;2024-01-07T12:26:10;99455.14;;;11.03;77.68
76808;BME280;65758;45.458;11.062;2024-01-07T12:28:38;99457.34;;;11.05;77.76
76808;BME280;65758;45.458;11.062;2024-01-07T12:31:06;99455.63;;;11.02;77.79
76808;BME280;65758;45.458;11.062;2024-01-07T12:33:37;99457.13;;;10.99;77.64
76808;BME280;65758;45.458;11.062;2024-01-07T12:36:06;99457.17;;;10.98;77.84
76808;BME280;65758;45.458;11.062;2024-01-07T12:38:36;99454.88;;;10.98;78.09
76808;BME280;65758;45.458;11.062;2024-01-07T12:41:05;99457.16;;;11.02;78.71
76808;BME280;65758;45.458;11.062;2024-01-07T12:43:32;99451.98;;;11.05;78.83
76808;BME280;65758;45.458;11.062;2024-01-07T12:45:59;99453.91;;;11.06;78.86
76808;BME280;65758;45.458;11.062;2024-01-07T12:48:32;99451.39;;;11.06;78.84
76808;BME280;65758;45.458;11.062;2024-01-07T12:51:00;99452.17;;;11.02;78.76
76808;BME280;65758;45.458;11.062;2024-01-07T12:53:27;99452.27;;;10.94;78.65
76808;BME280;65758;45.458;11.062;2024-01-07T12:55:55;99449.45;;;10.90;78.88
76808;BME280;65758;45.458;11.062;2024-01-07T12:58:22;99454.33;;;10.92;79.16
76808;BME280;65758;45.458;11.062;2024-01-07T13:00:49;99449.71;;;10.94;79.31
76808;BME280;65758;45.458;11.062;2024-01-07T13:03:16;99455.27;;;10.98;79.18
76808;BME280;65758;45.458;11.062;2024-01-07T13:05:47;99461.34;;;11.00;78.91